createdAt,value
2023-03-10T00:01:24.213Z,3.67
2023-03-10T00:04:00.010Z,3.47
2023-03-10T00:06:37.517Z,3.67
2023-03-10T00:09:12.204Z,3.33
2023-03-10T00:11:46.338Z,3.47
2023-03-10T00:14:19.470Z,3.93
2023-03-10T00:16:53.847Z,4.03
2023-03-10T00:19:27.049Z,3.50
2023-03-10T00:22:00.365Z,3.47
2023-03-10T00:24:33.666Z,3.57
2023-03-10T00:27:06.859Z,3.40
2023-03-10T00:29:39.929Z,3.30
2023-03-10T00:32:14.320Z,3.07
2023-03-10T00:34:47.345Z,3.20
2023-03-10T00:37:20.607Z,3.73
2023-03-10T00:39:54.122Z,3.20
2023-03-10T00:42:27.155Z,3.50
2023-03-10T00:45:00.182Z,3.40
2023-03-10T00:47:34.950Z,3.53
2023-03-10T00:50:09.498Z,3.10
2023-03-10T00:52:42.578Z,3.07
2023-03-10T00:55:15.601Z,2.90
2023-03-10T00:57:48.620Z,3.47
2023-03-10T01:00:24.466Z,3.10
2023-03-10T01:02:59.662Z,2.87
2023-03-10T01:05:33.441Z,3.27
2023-03-10T01:08:06.939Z,3.27
2023-03-10T01:10:40.138Z,3.17
2023-03-10T01:13:14.520Z,3.30
2023-03-10T01:15:48.820Z,2.97
2023-03-10T01:18:23.611Z,2.97
2023-03-10T01:20:56.628Z,2.70
2023-03-10T01:23:30.079Z,2.60
2023-03-10T01:26:03.142Z,2.80
2023-03-10T01:28:36.266Z,3.40
2023-03-10T01:31:10.427Z,3.63
2023-03-10T01:33:45.733Z,3.27
2023-03-10T01:36:22.756Z,3.43
2023-03-10T01:38:57.764Z,3.35
2023-03-10T01:41:30.930Z,4.00
2023-03-10T01:44:04.938Z,3.63
2023-03-10T01:46:50.922Z,3.63
2023-03-10T01:49:39.822Z,3.43
2023-03-10T01:52:17.617Z,3.00
2023-03-10T01:54:55.318Z,2.80
2023-03-10T01:57:33.190Z,3.47
2023-03-10T02:00:12.234Z,3.97
2023-03-10T02:02:54.237Z,3.37
2023-03-10T02:05:30.481Z,3.67
2023-03-10T02:08:04.480Z,3.90
2023-03-10T02:10:38.158Z,3.80
2023-03-10T02:13:11.272Z,3.30
2023-03-10T02:15:44.600Z,3.57
2023-03-10T02:18:19.259Z,3.70
2023-03-10T02:21:01.470Z,3.00
2023-03-10T02:23:45.067Z,2.63
2023-03-10T02:26:36.597Z,3.13
2023-03-10T02:29:16.989Z,3.40
2023-03-10T02:31:50.674Z,3.23
2023-03-10T02:34:25.143Z,2.90
2023-03-10T02:36:58.292Z,2.90
2023-03-10T02:39:31.373Z,3.00
2023-03-10T02:42:05.762Z,3.10
2023-03-10T02:44:41.001Z,3.00
2023-03-10T02:47:14.451Z,2.70
2023-03-10T02:49:47.988Z,2.50
2023-03-10T02:52:29.541Z,2.20
2023-03-10T02:55:02.704Z,2.30
2023-03-10T02:57:35.722Z,2.50
2023-03-10T03:00:12.831Z,2.50
2023-03-10T03:02:45.873Z,2.50
2023-03-10T03:05:19.145Z,2.60
2023-03-10T03:07:52.279Z,2.20
2023-03-10T03:10:25.422Z,2.08
2023-03-10T03:12:58.554Z,2.10
2023-03-10T03:15:33.318Z,1.92
2023-03-10T03:18:06.973Z,2.17
2023-03-10T03:20:41.360Z,1.85
2023-03-10T03:23:14.686Z,2.00
2023-03-10T03:25:47.729Z,1.90
2023-03-10T03:28:21.414Z,1.90
2023-03-10T03:30:55.973Z,1.92
2023-03-10T03:33:29.092Z,1.70
2023-03-10T03:36:02.305Z,1.88
2023-03-10T03:38:35.372Z,1.85
2023-03-10T03:41:09.612Z,1.70
2023-03-10T03:43:42.926Z,1.80
2023-03-10T03:46:17.439Z,1.80
2023-03-10T03:48:50.535Z,1.30
2023-03-10T03:51:23.561Z,1.70
2023-03-10T03:53:56.634Z,1.77
2023-03-10T03:56:29.628Z,1.58
2023-03-10T03:59:02.724Z,1.52
2023-03-10T04:01:37.195Z,1.60
2023-03-10T04:04:10.385Z,1.20
2023-03-10T04:06:43.708Z,1.70
2023-03-10T04:09:18.134Z,1.40
2023-03-10T04:11:51.216Z,1.33
2023-03-10T04:14:24.295Z,1.35
2023-03-10T04:16:58.683Z,1.80
2023-03-10T04:19:32.302Z,1.50
2023-03-10T04:22:05.414Z,1.40
2023-03-10T04:24:39.590Z,1.70
2023-03-10T04:27:12.641Z,1.60
2023-03-10T04:29:45.638Z,1.27
2023-03-10T04:32:20.142Z,1.73
2023-03-10T04:34:53.569Z,1.48
2023-03-10T04:37:30.187Z,1.40
2023-03-10T04:40:08.215Z,1.48
2023-03-10T04:42:41.343Z,1.23
2023-03-10T04:45:15.130Z,1.40
2023-03-10T04:47:49.508Z,1.63
2023-03-10T04:50:22.681Z,4.13
2023-03-10T04:52:56.059Z,1.83
2023-03-10T04:55:29.159Z,1.60
2023-03-10T04:58:02.459Z,1.35
2023-03-10T05:00:35.581Z,1.50
2023-03-10T05:03:10.063Z,1.38
2023-03-10T05:05:44.050Z,1.40
2023-03-10T05:08:17.138Z,1.58
2023-03-10T05:10:50.242Z,1.30
2023-03-10T05:13:23.276Z,1.48
2023-03-10T05:15:56.364Z,1.48
2023-03-10T05:18:30.851Z,1.65
2023-03-10T05:21:03.909Z,1.63
2023-03-10T05:23:37.102Z,2.08
2023-03-10T05:26:12.395Z,7.68
2023-03-10T05:28:45.415Z,4.50
2023-03-10T05:31:26.559Z,4.60
2023-03-10T05:34:01.165Z,3.33
2023-03-10T05:36:34.286Z,2.38
2023-03-10T05:39:09.535Z,1.50
2023-03-10T05:41:42.603Z,1.55
2023-03-10T05:44:15.652Z,1.55
2023-03-10T05:46:48.806Z,1.67
2023-03-10T05:49:23.332Z,1.70
2023-03-10T05:51:56.380Z,1.55
2023-03-10T05:54:29.398Z,1.40
2023-03-10T05:57:02.450Z,1.80
2023-03-10T05:59:35.561Z,1.90
2023-03-10T06:02:08.708Z,1.60
2023-03-10T06:04:43.075Z,1.67
2023-03-10T06:07:16.144Z,2.50
2023-03-10T06:09:49.211Z,1.55
2023-03-10T06:12:22.366Z,1.77
2023-03-10T06:14:55.505Z,1.63
2023-03-10T06:17:28.536Z,1.60
2023-03-10T06:20:03.018Z,1.70
2023-03-10T06:22:36.096Z,2.03
2023-03-10T06:25:10.645Z,1.85
2023-03-10T06:27:43.720Z,2.00
2023-03-10T06:30:17.693Z,1.80
2023-03-10T06:32:50.894Z,2.13
2023-03-10T06:35:25.355Z,1.95
2023-03-10T06:37:58.430Z,2.03
2023-03-10T06:40:31.633Z,1.67
2023-03-10T06:43:04.714Z,1.98
2023-03-10T06:45:37.994Z,1.90
2023-03-10T06:48:11.877Z,1.70
2023-03-10T06:50:48.964Z,2.28
2023-03-10T06:53:23.054Z,1.90
2023-03-10T06:56:01.222Z,2.05
2023-03-10T06:58:36.296Z,2.22
2023-03-10T07:01:10.167Z,2.20
2023-03-10T07:03:43.872Z,2.47
2023-03-10T07:06:18.396Z,2.67
2023-03-10T07:08:51.845Z,2.97
2023-03-10T07:11:26.705Z,2.90
2023-03-10T07:13:59.951Z,2.35
2023-03-10T07:16:33.050Z,2.67
2023-03-10T07:19:06.061Z,1.90
2023-03-10T07:21:40.664Z,1.80
2023-03-10T07:24:13.748Z,1.88
2023-03-10T07:26:46.997Z,1.90
2023-03-10T07:29:20.032Z,1.90
2023-03-10T07:31:53.160Z,2.08
2023-03-10T07:34:26.186Z,1.90
2023-03-10T07:37:00.633Z,2.00
2023-03-10T07:39:33.674Z,1.52
2023-03-10T07:42:08.022Z,1.75
2023-03-10T07:44:41.077Z,1.50
2023-03-10T07:47:14.201Z,1.60
2023-03-10T07:49:47.410Z,1.83
2023-03-10T07:52:21.877Z,1.75
2023-03-10T07:54:54.863Z,1.50
2023-03-10T07:57:29.800Z,2.40
2023-03-10T08:00:03.016Z,2.00
2023-03-10T08:02:36.808Z,1.60
2023-03-10T08:05:11.770Z,1.77
2023-03-10T08:07:46.480Z,1.58
2023-03-10T08:10:19.929Z,1.65
2023-03-10T08:12:55.091Z,1.80
2023-03-10T08:15:28.847Z,1.45
2023-03-10T08:18:05.126Z,1.48
2023-03-10T08:20:40.726Z,1.50
2023-03-10T08:23:15.823Z,1.60
2023-03-10T08:25:49.475Z,1.40
2023-03-10T08:28:23.074Z,1.58
2023-03-10T08:31:04.166Z,1.90
2023-03-10T08:33:38.807Z,1.75
2023-03-10T08:36:15.668Z,1.92
2023-03-10T08:38:51.564Z,2.00
2023-03-10T08:41:27.562Z,1.50
2023-03-10T08:44:01.761Z,2.03
2023-03-10T08:46:35.789Z,1.88
2023-03-10T08:49:09.223Z,1.80
2023-03-10T08:51:43.207Z,2.25
2023-03-10T08:54:20.883Z,2.13
2023-03-10T08:56:54.319Z,1.20
2023-03-10T08:59:27.648Z,1.70
2023-03-10T09:02:00.755Z,1.48
2023-03-10T09:04:33.862Z,1.27
2023-03-10T09:07:06.991Z,1.60
2023-03-10T09:09:41.480Z,1.83
2023-03-10T09:12:14.528Z,1.60
2023-03-10T09:14:48.424Z,1.70
2023-03-10T09:17:21.498Z,2.05
2023-03-10T09:19:54.551Z,2.00
2023-03-10T09:22:27.625Z,2.00
2023-03-10T09:25:02.044Z,1.80
2023-03-10T09:27:35.152Z,1.67
2023-03-10T09:30:09.527Z,1.67
2023-03-10T09:32:44.854Z,2.00
2023-03-10T09:35:18.223Z,1.90
2023-03-10T09:37:51.402Z,1.60
2023-03-10T09:40:26.462Z,2.33
2023-03-10T09:43:02.430Z,2.10
2023-03-10T09:45:44.905Z,2.10
2023-03-10T09:48:37.790Z,2.28
2023-03-10T09:51:18.002Z,1.90
2023-03-10T09:53:59.929Z,2.20
2023-03-10T09:56:37.158Z,2.15
2023-03-10T09:59:16.586Z,1.80
2023-03-10T10:01:52.377Z,2.10
2023-03-10T10:04:35.075Z,1.90
2023-03-10T10:07:17.381Z,1.90
2023-03-10T10:09:56.507Z,2.00
2023-03-10T10:12:30.947Z,1.98
2023-03-10T10:15:17.880Z,1.67
2023-03-10T10:18:24.961Z,2.28
2023-03-10T10:21:01.750Z,2.10
2023-03-10T10:23:43.639Z,2.28
2023-03-10T10:26:20.301Z,1.90
2023-03-10T10:28:57.692Z,1.95
2023-03-10T10:31:34.973Z,2.72
2023-03-10T10:34:20.819Z,2.20
2023-03-10T10:36:57.102Z,1.40
2023-03-10T10:39:34.527Z,1.50
2023-03-10T10:42:20.384Z,1.70
2023-03-10T10:44:57.247Z,1.80
2023-03-10T10:47:32.917Z,2.00
2023-03-10T10:50:21.063Z,2.13
2023-03-10T10:53:21.108Z,1.80
2023-03-10T10:56:04.643Z,2.00
2023-03-10T10:58:40.785Z,1.88
2023-03-10T11:01:17.735Z,1.85
2023-03-10T11:04:06.545Z,1.70
2023-03-10T11:06:39.667Z,1.60
2023-03-10T11:09:18.604Z,1.80
2023-03-10T11:12:01.572Z,1.75
2023-03-10T11:14:49.403Z,2.00
2023-03-10T11:17:29.742Z,1.80
2023-03-10T11:20:15.393Z,1.70
2023-03-10T11:22:55.982Z,1.67
2023-03-10T11:25:37.859Z,1.60
2023-03-10T11:28:42.055Z,1.58
2023-03-10T11:31:33.351Z,1.77
2023-03-10T11:34:22.386Z,1.35
2023-03-10T11:37:06.786Z,1.40
2023-03-10T11:39:49.087Z,1.50
2023-03-10T11:42:32.459Z,1.45
2023-03-10T11:45:21.577Z,1.50
2023-03-10T11:48:07.831Z,1.65
2023-03-10T11:50:50.880Z,1.50
2023-03-10T11:53:35.675Z,1.80
2023-03-10T11:56:12.723Z,1.67
2023-03-10T11:58:51.234Z,1.88
2023-03-10T12:01:31.722Z,1.70
2023-03-10T12:04:14.871Z,1.50
2023-03-10T12:06:55.170Z,1.65
2023-03-10T12:09:40.053Z,1.55
2023-03-10T12:12:16.231Z,1.85
2023-03-10T12:14:50.201Z,1.48
2023-03-10T12:17:23.509Z,1.90
2023-03-10T12:20:25.684Z,1.77
2023-03-10T12:23:02.733Z,1.70
2023-03-10T12:25:49.517Z,1.63
2023-03-10T12:28:28.612Z,1.90
2023-03-10T12:31:04.355Z,1.90
2023-03-10T12:33:53.418Z,1.80
2023-03-10T12:36:37.188Z,2.40
2023-03-10T12:39:32.599Z,2.00
2023-03-10T12:42:14.668Z,2.10
2023-03-10T12:44:55.729Z,1.77
2023-03-10T12:47:49.633Z,1.90
2023-03-10T12:50:46.501Z,1.90
2023-03-10T12:53:32.858Z,1.90
2023-03-10T12:56:36.687Z,2.00
2023-03-10T12:59:17.294Z,1.73
2023-03-10T13:01:55.896Z,1.60
2023-03-10T13:04:29.663Z,1.90
2023-03-10T13:07:04.405Z,1.63
2023-03-10T13:09:43.722Z,1.67
2023-03-10T13:12:22.879Z,1.90
2023-03-10T13:14:59.884Z,1.17
2023-03-10T13:17:34.242Z,1.48
2023-03-10T13:20:17.329Z,1.48
2023-03-10T13:22:55.563Z,1.50
2023-03-10T13:25:28.594Z,1.30
2023-03-10T13:28:11.956Z,1.50
2023-03-10T13:30:46.815Z,1.50
2023-03-10T13:33:27.398Z,1.40
2023-03-10T13:36:00.971Z,1.35
2023-03-10T13:38:34.049Z,1.60
2023-03-10T13:41:13.195Z,1.42
2023-03-10T13:43:49.396Z,1.20
2023-03-10T13:46:27.770Z,1.30
2023-03-10T13:49:06.241Z,1.38
2023-03-10T13:51:39.754Z,1.40
2023-03-10T13:54:21.002Z,1.30
2023-03-10T13:56:57.434Z,1.08
2023-03-10T13:59:33.386Z,1.27
2023-03-10T14:02:15.318Z,1.20
2023-03-10T14:04:51.379Z,1.60
2023-03-10T14:07:27.497Z,1.65
2023-03-10T14:10:19.542Z,1.60
2023-03-10T14:12:55.177Z,1.38
2023-03-10T14:15:38.552Z,1.50
2023-03-10T14:18:19.947Z,1.60
2023-03-10T14:20:52.993Z,1.73
2023-03-10T14:23:29.246Z,1.80
2023-03-10T14:26:02.283Z,1.40
2023-03-10T14:28:35.354Z,1.80
2023-03-10T14:31:21.942Z,1.70
2023-03-10T14:33:54.993Z,1.77
2023-03-10T14:36:28.031Z,1.80
2023-03-10T14:39:01.017Z,1.47
2023-03-10T14:41:34.388Z,1.63
2023-03-10T14:44:07.669Z,1.67
2023-03-10T14:46:42.288Z,1.60
2023-03-10T14:49:17.464Z,1.60
2023-03-10T14:51:50.531Z,1.50
2023-03-10T14:54:25.899Z,1.50
2023-03-10T14:56:59.930Z,1.70
2023-03-10T14:59:32.990Z,1.70
2023-03-10T15:02:22.651Z,1.48
2023-03-10T15:04:55.772Z,1.77
2023-03-10T15:07:28.834Z,1.90
2023-03-10T15:10:11.636Z,1.55
2023-03-10T15:12:45.479Z,1.80
2023-03-10T15:15:21.989Z,1.90
2023-03-10T15:17:56.627Z,1.60
2023-03-10T15:20:29.709Z,1.50
2023-03-10T15:23:02.761Z,1.50
2023-03-10T15:25:35.919Z,1.70
2023-03-10T15:28:08.950Z,1.87
2023-03-10T15:30:42.711Z,2.17
2023-03-10T15:33:17.442Z,2.23
2023-03-10T15:35:50.872Z,1.90
2023-03-10T15:38:23.981Z,1.80
2023-03-10T15:40:57.256Z,3.13
2023-03-10T15:43:30.374Z,2.83
2023-03-10T15:46:07.836Z,3.53
2023-03-10T15:48:42.294Z,5.03
2023-03-10T15:51:18.028Z,2.90
2023-03-10T15:53:51.415Z,2.27
2023-03-10T15:56:24.489Z,2.30
2023-03-10T15:58:58.045Z,1.90
2023-03-10T16:01:31.306Z,2.63
2023-03-10T16:04:06.053Z,2.40
2023-03-10T16:06:39.129Z,2.20
2023-03-10T16:09:12.302Z,1.90
2023-03-10T16:11:45.489Z,2.40
2023-03-10T16:14:18.506Z,2.00
2023-03-10T16:16:51.627Z,2.37
2023-03-10T16:19:26.749Z,2.23
2023-03-10T16:21:59.777Z,2.90
2023-03-10T16:24:33.068Z,2.13
2023-03-10T16:27:06.488Z,2.00
2023-03-10T16:29:40.890Z,2.80
2023-03-10T16:32:14.969Z,2.77
2023-03-10T16:34:49.491Z,3.43
2023-03-10T16:37:22.527Z,2.53
2023-03-10T16:39:56.389Z,2.90
2023-03-10T16:42:35.607Z,3.00
2023-03-10T16:45:09.710Z,2.60
2023-03-10T16:47:43.966Z,3.63
2023-03-10T16:50:18.981Z,2.67
2023-03-10T16:52:56.575Z,2.90
2023-03-10T16:55:29.687Z,3.10
2023-03-10T16:58:02.808Z,3.30
2023-03-10T17:00:38.193Z,3.40
2023-03-10T17:03:11.221Z,3.60
2023-03-10T17:05:45.625Z,3.20
2023-03-10T17:08:18.646Z,2.80
2023-03-10T17:10:51.681Z,3.70
2023-03-10T17:13:24.750Z,3.10
2023-03-10T17:15:57.894Z,2.80
2023-03-10T17:18:30.927Z,2.57
2023-03-10T17:21:14.695Z,3.33
2023-03-10T17:23:48.549Z,2.33
2023-03-10T17:26:22.442Z,2.30
2023-03-10T17:28:55.706Z,2.80
2023-03-10T17:31:30.371Z,5.13
2023-03-10T17:34:07.215Z,4.60
2023-03-10T17:36:42.134Z,4.07
2023-03-10T17:39:19.825Z,3.37
2023-03-10T17:41:54.419Z,2.60
2023-03-10T17:44:27.696Z,3.03
2023-03-10T17:47:00.809Z,3.00
2023-03-10T17:49:34.117Z,4.63
2023-03-10T17:52:08.779Z,4.83
2023-03-10T17:54:41.911Z,3.60
2023-03-10T17:57:15.238Z,3.67
2023-03-10T17:59:48.272Z,2.83
2023-03-10T18:02:21.572Z,2.83
2023-03-10T18:04:54.595Z,2.80
2023-03-10T18:07:30.228Z,2.97
2023-03-10T18:10:03.915Z,2.73
2023-03-10T18:12:37.007Z,3.40
2023-03-10T18:15:11.658Z,5.43
2023-03-10T18:17:44.904Z,3.70
2023-03-10T18:20:18.099Z,3.47
2023-03-10T18:22:52.604Z,3.60
2023-03-10T18:25:25.639Z,4.97
2023-03-10T18:27:58.662Z,3.20
2023-03-10T18:30:31.708Z,3.53
2023-03-10T18:33:04.897Z,4.10
2023-03-10T18:35:39.326Z,3.47
2023-03-10T18:38:14.961Z,3.23
2023-03-10T18:40:48.099Z,2.90
2023-03-10T18:43:21.133Z,3.03
2023-03-10T18:45:54.119Z,3.40
2023-03-10T18:48:28.640Z,3.00
2023-03-10T18:51:02.153Z,3.10
2023-03-10T18:53:36.561Z,3.27
2023-03-10T18:56:10.833Z,3.10
2023-03-10T18:58:43.842Z,3.27
2023-03-10T19:01:17.171Z,3.60
2023-03-10T19:03:50.505Z,4.60
2023-03-10T19:06:23.602Z,5.33
2023-03-10T19:08:57.996Z,4.10
2023-03-10T19:11:35.390Z,3.90
2023-03-10T19:14:08.748Z,3.30
2023-03-10T19:16:42.748Z,3.07
2023-03-10T19:19:15.728Z,2.83
2023-03-10T19:21:48.780Z,3.70
2023-03-10T19:24:23.253Z,3.40
2023-03-10T19:26:56.655Z,2.90
2023-03-10T19:29:29.647Z,3.10
2023-03-10T19:32:03.006Z,3.57
2023-03-10T19:34:36.506Z,3.50
2023-03-10T19:37:09.560Z,3.10
2023-03-10T19:39:44.338Z,3.50
2023-03-10T19:42:17.458Z,3.80
2023-03-10T19:44:50.452Z,3.90
2023-03-10T19:47:23.485Z,3.73
2023-03-10T19:49:56.716Z,4.07
2023-03-10T19:52:29.878Z,3.73
2023-03-10T19:55:04.485Z,3.50
2023-03-10T19:57:37.700Z,3.67
2023-03-10T20:00:14.836Z,3.67
2023-03-10T20:02:48.031Z,3.87
2023-03-10T20:05:21.604Z,3.43
2023-03-10T20:07:54.723Z,3.80
2023-03-10T20:10:29.185Z,3.60
2023-03-10T20:13:02.367Z,4.00
2023-03-10T20:15:35.428Z,4.13
2023-03-10T20:18:08.554Z,3.67
2023-03-10T20:20:42.323Z,3.50
2023-03-10T20:23:16.171Z,3.23
2023-03-10T20:25:50.771Z,3.53
2023-03-10T20:28:23.877Z,3.33
2023-03-10T20:30:56.926Z,3.40
2023-03-10T20:33:30.369Z,3.20
2023-03-10T20:36:03.444Z,3.00
2023-03-10T20:38:36.538Z,2.80
2023-03-10T20:41:12.575Z,3.43
2023-03-10T20:43:46.234Z,3.30
2023-03-10T20:46:19.757Z,3.33
2023-03-10T20:48:52.965Z,2.90
2023-03-10T20:51:26.010Z,3.27
2023-03-10T20:53:59.092Z,2.70
2023-03-10T20:56:34.108Z,2.80
2023-03-10T20:59:07.174Z,3.10
2023-03-10T21:01:42.422Z,3.00
2023-03-10T21:04:15.605Z,3.37
2023-03-10T21:06:48.666Z,3.17
2023-03-10T21:09:21.650Z,2.80
2023-03-10T21:11:56.095Z,2.80
2023-03-10T21:14:29.160Z,2.90
2023-03-10T21:17:03.080Z,2.97
2023-03-10T21:19:36.312Z,2.93
2023-03-10T21:22:09.648Z,2.77
2023-03-10T21:24:42.690Z,3.60
2023-03-10T21:27:17.292Z,3.20
2023-03-10T21:29:50.304Z,2.90
2023-03-10T21:32:25.864Z,2.97
2023-03-10T21:34:59.809Z,3.10
2023-03-10T21:37:33.164Z,2.93
2023-03-10T21:40:09.425Z,2.80
2023-03-10T21:42:43.820Z,2.43
2023-03-10T21:45:20.462Z,2.80
2023-03-10T21:47:53.832Z,3.03
2023-03-10T21:50:27.042Z,3.03
2023-03-10T21:53:00.760Z,2.63
2023-03-10T21:55:34.461Z,7.50
2023-03-10T21:58:08.898Z,3.33
2023-03-10T22:00:42.704Z,2.93
2023-03-10T22:03:15.793Z,2.77
2023-03-10T22:05:50.486Z,3.40
2023-03-10T22:08:23.554Z,2.90
2023-03-10T22:10:56.586Z,3.10
2023-03-10T22:13:30.990Z,2.90
2023-03-10T22:16:05.783Z,2.80
2023-03-10T22:18:39.136Z,3.00
2023-03-10T22:21:12.729Z,3.03
2023-03-10T22:23:46.010Z,3.10
2023-03-10T22:26:19.069Z,2.93
2023-03-10T22:28:53.464Z,3.00
2023-03-10T22:31:26.536Z,3.20
2023-03-10T22:33:59.822Z,3.47
2023-03-10T22:36:32.849Z,3.13
2023-03-10T22:39:05.885Z,2.60
2023-03-10T22:41:39.018Z,2.80
2023-03-10T22:44:13.393Z,3.10
2023-03-10T22:46:47.161Z,3.10
2023-03-10T22:49:20.286Z,3.20
2023-03-10T22:51:53.320Z,2.90
2023-03-10T22:54:26.789Z,3.43
2023-03-10T22:57:00.058Z,3.00
2023-03-10T22:59:34.421Z,2.97
2023-03-10T23:02:07.494Z,2.90
2023-03-10T23:04:40.573Z,3.00
2023-03-10T23:07:13.638Z,2.73
2023-03-10T23:09:46.664Z,3.20
2023-03-10T23:12:19.692Z,3.40
2023-03-10T23:14:54.122Z,3.00
2023-03-10T23:17:27.565Z,3.10
2023-03-10T23:20:00.636Z,2.90
2023-03-10T23:22:33.979Z,3.30
2023-03-10T23:25:08.045Z,2.80
2023-03-10T23:27:41.374Z,3.07
2023-03-10T23:30:17.171Z,3.03
2023-03-10T23:32:51.926Z,2.83
2023-03-10T23:35:28.547Z,3.23
2023-03-10T23:38:03.073Z,3.10
2023-03-10T23:40:37.700Z,3.20
2023-03-10T23:43:10.752Z,3.10
2023-03-10T23:45:45.611Z,3.23
2023-03-10T23:48:20.373Z,3.03
2023-03-10T23:50:53.418Z,3.10
2023-03-10T23:53:28.511Z,2.70
2023-03-10T23:56:01.567Z,3.37
2023-03-10T23:58:34.734Z,3.37
